Time;durP1;ratioP1;P1;durP2;ratioP2;P2;SDS_P1;SDS_P2;PMS_P1;PMS_P2;Temp;Humidity;BMP_temperature;BMP_pressure;BME280_temperature;BME280_humidity;BME280_pressure;Samples;Min_cycle;Max_cycle;Signal;HPM_P1;HPM_P2
2023/09/02 00:00:47;;;;;;;;;6.00;5.00;;;;;24.05;76.26;100771.31;4889943;29;47056;-78
2023/09/02 00:03:13;;;;;;;;;5.50;5.50;;;;;24.05;75.93;100760.44;4888359;29;44943;-80
2023/09/02 00:05:38;;;;;;;;;7.00;7.00;;;;;24.00;76.36;100762.50;4888724;29;45450;-79
2023/09/02 00:08:04;;;;;;;;;6.67;6.67;;;;;23.96;76.36;100756.28;4889418;29;45328;-81
2023/09/02 00:10:30;;;;;;;;;6.00;5.00;;;;;23.95;76.84;100762.66;4905755;29;45502;-80
2023/09/02 00:12:56;;;;;;;;;6.33;6.33;;;;;23.93;76.89;100766.38;4906382;29;44879;-79
2023/09/02 00:15:22;;;;;;;;;5.33;5.33;;;;;23.96;76.57;100769.00;4890595;29;45376;-81
2023/09/02 00:17:47;;;;;;;;;6.00;6.00;;;;;23.94;76.85;100765.47;4907731;29;45416;-79
2023/09/02 00:20:13;;;;;;;;;4.67;4.00;;;;;23.92;76.45;100772.78;4908351;29;44913;-81
2023/09/02 00:22:38;;;;;;;;;5.67;4.00;;;;;23.85;76.90;100758.56;4889413;29;44776;-82
2023/09/02 00:25:04;;;;;;;;;5.00;5.00;;;;;23.86;76.68;100762.19;4905910;29;45073;-81
2023/09/02 00:28:10;;;;;;;;;6.67;6.67;;;;;24.01;76.96;100758.81;4888595;29;45458;-81
2023/09/02 00:30:35;;;;;;;;;6.75;6.75;;;;;23.75;77.29;100768.91;4906364;29;45685;-82
2023/09/02 00:33:01;;;;;;;;;8.33;8.33;;;;;23.73;77.50;100770.78;4891245;29;44813;-82
2023/09/02 00:35:26;;;;;;;;;8.00;5.67;;;;;23.74;77.79;100769.81;4889085;29;45137;-81
2023/09/02 00:37:53;;;;;;;;;7.00;7.00;;;;;23.76;77.71;100775.19;4903793;29;45435;-82
2023/09/02 00:40:24;;;;;;;;;7.67;7.00;;;;;23.72;78.61;100771.72;4905676;29;45078;-81
2023/09/02 00:42:50;;;;;;;;;7.75;6.25;;;;;23.62;78.43;100770.31;4887416;29;44843;-82
2023/09/02 00:45:21;;;;;;;;;6.00;6.00;;;;;23.59;78.45;100767.72;4888288;29;45238;-81
2023/09/02 00:47:48;;;;;;;;;5.00;5.00;;;;;23.47;78.55;100769.09;4889224;29;44890;-82
2023/09/02 00:50:14;;;;;;;;;5.25;5.25;;;;;23.44;78.61;100774.63;4888939;29;47688;-80
2023/09/02 00:52:39;;;;;;;;;7.67;6.67;;;;;23.40;79.03;100769.41;4906118;29;44825;-81
2023/09/02 00:55:05;;;;;;;;;7.00;5.00;;;;;23.36;78.88;100772.22;4905633;29;44706;-81
2023/09/02 00:57:30;;;;;;;;;6.00;6.00;;;;;23.26;78.76;100762.66;4906456;29;45371;-81
2023/09/02 00:59:56;;;;;;;;;5.00;5.00;;;;;23.25;79.89;100771.75;4905713;29;45370;-80
2023/09/02 01:02:22;;;;;;;;;7.33;7.33;;;;;23.21;80.26;100761.97;4892264;29;45643;-83
2023/09/02 01:04:48;;;;;;;;;7.67;7.67;;;;;23.17;80.76;100768.47;4891895;29;44909;-82
2023/09/02 01:07:26;;;;;;;;;4.50;4.50;;;;;23.27;80.29;100767.16;4892744;29;44765;-82
2023/09/02 01:09:52;;;;;;;;;5.00;5.00;;;;;23.11;80.70;100764.13;4891999;29;46349;-81
2023/09/02 01:12:17;;;;;;;;;6.00;6.00;;;;;23.07;81.03;100764.31;4909700;29;44894;-83
2023/09/02 01:14:43;;;;;;;;;5.00;5.00;;;;;23.00;81.39;100751.88;4909426;29;44787;-82
2023/09/02 01:17:09;;;;;;;;;6.00;6.00;;;;;23.00;82.52;100757.31;4907631;29;44794;-81
2023/09/02 01:19:36;;;;;;;;;8.33;7.00;;;;;23.06;81.91;100768.84;4889213;29;46799;-80
2023/09/02 01:22:32;;;;;;;;;6.67;6.67;;;;;23.10;82.28;100759.63;4906554;29;45362;-80
2023/09/02 01:25:03;;;;;;;;;8.00;6.67;;;;;23.08;83.03;100766.94;4907383;29;44836;-81
2023/09/02 01:27:42;;;;;;;;;6.67;5.67;;;;;23.07;82.57;100769.75;4906523;29;44896;-81
2023/09/02 01:30:11;;;;;;;;;7.33;7.33;;;;;22.90;83.19;100773.03;4892397;29;47577;-81
2023/09/02 01:32:40;;;;;;;;;6.50;5.25;;;;;22.99;83.02;100771.81;4890209;29;45489;-81
2023/09/02 01:35:07;;;;;;;;;8.00;8.00;;;;;22.90;83.28;100779.34;4888547;29;45377;-82
2023/09/02 01:37:34;;;;;;;;;9.00;8.00;;;;;22.83;83.85;100777.81;4905603;29;44854;-81
2023/09/02 01:40:05;;;;;;;;;7.00;7.00;;;;;22.85;83.59;100775.03;4888818;29;46934;-81
2023/09/02 01:42:33;;;;;;;;;5.75;5.75;;;;;22.77;84.00;100765.34;4889117;29;46147;-81
2023/09/02 01:45:00;;;;;;;;;5.00;5.00;;;;;22.75;84.07;100756.38;4904672;29;44789;-81
2023/09/02 01:47:26;;;;;;;;;6.33;5.33;;;;;22.71;84.37;100767.41;4906279;29;45435;-81
2023/09/02 01:49:52;;;;;;;;;8.00;7.00;;;;;22.68;85.43;100768.41;4905586;29;47008;-82
2023/09/02 01:52:19;;;;;;;;;7.00;7.00;;;;;22.68;85.77;100765.69;4890189;29;44786;-81
2023/09/02 01:54:44;;;;;;;;;6.33;6.33;;;;;22.58;86.36;100761.50;4889665;29;44878;-82
2023/09/02 01:57:11;;;;;;;;;8.00;7.00;;;;;22.63;86.35;100755.94;4888822;29;45041;-82
2023/09/02 01:59:37;;;;;;;;;8.33;6.67;;;;;22.54;86.26;100760.75;4904995;29;45192;-82
2023/09/02 02:02:03;;;;;;;;;7.00;7.00;;;;;22.53;87.13;100753.56;4905207;29;45548;-81
2023/09/02 02:04:35;;;;;;;;;7.00;5.00;;;;;22.63;86.78;100750.53;4905538;29;45903;-81
2023/09/02 02:07:06;;;;;;;;;5.33;5.33;;;;;22.59;86.82;100751.56;4872377;29;44829;-81
2023/09/02 02:09:59;;;;;;;;;9.33;6.00;;;;;22.62;86.87;100751.44;4888323;29;48083;-81
2023/09/02 02:12:25;;;;;;;;;5.00;5.00;;;;;22.45;87.24;100743.94;4885995;29;44902;-80
2023/09/02 02:14:51;;;;;;;;;4.00;4.00;;;;;22.41;87.13;100740.44;4906057;29;45785;-81
2023/09/02 02:17:19;;;;;;;;;5.00;5.00;;;;;22.51;86.59;100725.63;4888916;29;44881;-80
2023/09/02 02:19:45;;;;;;;;;4.00;4.00;;;;;22.39;86.72;100730.59;4903893;29;45229;-78
2023/09/02 02:22:10;;;;;;;;;4.00;4.00;;;;;22.38;87.01;100732.44;4888603;29;45311;-78
2023/09/02 02:24:36;;;;;;;;;5.00;5.00;;;;;22.39;87.18;100734.19;4905093;29;44856;-81
2023/09/02 02:27:13;;;;;;;;;4.00;4.00;;;;;22.31;87.13;100737.16;4885986;29;45663;-79
2023/09/02 02:29:38;;;;;;;;;4.33;4.33;;;;;22.30;87.22;100748.03;4869365;29;47056;-83
2023/09/02 02:32:04;;;;;;;;;7.00;6.00;;;;;22.36;86.81;100746.03;4887046;29;44857;-83
2023/09/02 02:34:30;;;;;;;;;5.67;4.00;;;;;22.36;86.38;100746.03;4887000;29;45695;-83
2023/09/02 02:36:56;;;;;;;;;5.00;5.00;;;;;22.36;86.65;100750.56;4885822;29;45549;-82
2023/09/02 02:39:25;;;;;;;;;6.25;5.25;;;;;22.33;86.13;100735.28;4885055;29;45448;-81
2023/09/02 02:41:51;;;;;;;;;5.25;5.25;;;;;22.35;87.14;100737.94;4868075;29;45473;-83
2023/09/02 02:44:17;;;;;;;;;6.25;5.00;;;;;22.25;86.96;100741.91;4867590;29;45540;-80
2023/09/02 02:46:43;;;;;;;;;6.33;5.00;;;;;22.27;87.49;100749.03;4885512;29;44841;-78
2023/09/02 02:49:08;;;;;;;;;3.00;3.00;;;;;22.23;87.33;100754.59;4867922;29;47435;-78
2023/09/02 02:51:33;;;;;;;;;5.75;5.75;;;;;22.23;87.79;100754.59;4885369;29;45366;-79
2023/09/02 02:53:59;;;;;;;;;4.50;4.50;;;;;22.18;87.63;100749.34;4868751;29;45450;-78
2023/09/02 02:56:24;;;;;;;;;5.75;5.75;;;;;22.15;87.92;100747.59;4885957;29;45431;-79
2023/09/02 02:58:51;;;;;;;;;5.00;3.75;;;;;22.25;88.13;100744.63;4868450;29;47053;-78
2023/09/02 03:01:17;;;;;;;;;5.25;5.25;;;;;22.13;88.28;100746.75;4868647;29;44945;-79
2023/09/02 03:03:43;;;;;;;;;5.00;5.00;;;;;22.25;88.58;100753.63;4867933;29;44808;-79
2023/09/02 03:06:14;;;;;;;;;3.25;3.25;;;;;22.12;88.45;100758.56;4885033;29;44858;-80
2023/09/02 03:08:40;;;;;;;;;5.00;5.00;;;;;22.11;88.62;100767.59;4899041;29;47135;-80
2023/09/02 03:11:06;;;;;;;;;8.67;7.00;;;;;22.16;88.58;100765.63;4867914;29;45043;-79
2023/09/02 03:13:34;;;;;;;;;3.75;3.75;;;;;22.06;88.56;100766.00;4884472;29;44841;-82
2023/09/02 03:16:01;;;;;;;;;6.00;6.00;;;;;22.11;89.16;100773.00;4866741;29;45337;-80
2023/09/02 03:18:27;;;;;;;;;6.25;6.25;;;;;22.04;88.93;100766.03;4884670;29;45536;-81
2023/09/02 03:20:53;;;;;;;;;5.50;4.50;;;;;21.96;89.32;100762.72;4867884;29;44849;-79
2023/09/02 03:23:19;;;;;;;;;5.00;5.00;;;;;21.95;89.61;100766.34;4868223;29;45558;-78
2023/09/02 03:25:44;;;;;;;;;4.67;4.67;;;;;21.89;89.69;100766.53;4887995;29;44724;-78
2023/09/02 03:28:10;;;;;;;;;7.67;7.67;;;;;21.94;89.71;100780.81;4889614;29;47148;-78
2023/09/02 03:30:35;;;;;;;;;6.00;5.33;;;;;21.95;90.27;100790.72;4903725;29;45474;-78
2023/09/02 03:33:01;;;;;;;;;3.50;3.50;;;;;21.88;89.89;100786.44;4887634;29;45384;-79
2023/09/02 03:35:26;;;;;;;;;6.75;6.75;;;;;21.95;90.13;100793.41;4887416;29;45309;-78
2023/09/02 03:37:52;;;;;;;;;5.00;5.00;;;;;21.96;90.14;100795.19;4905545;29;45379;-78
2023/09/02 03:40:19;;;;;;;;;4.50;4.50;;;;;21.94;90.35;100786.25;4888948;29;45670;-78
2023/09/02 03:42:44;;;;;;;;;5.75;5.00;;;;;21.89;90.40;100799.03;4905959;29;45309;-79
2023/09/02 03:45:10;;;;;;;;;4.00;4.00;;;;;21.90;90.22;100806.22;4888269;29;44964;-79
2023/09/02 03:47:39;;;;;;;;;7.67;7.67;;;;;21.96;90.21;100808.75;4887715;29;45422;-80
2023/09/02 03:50:06;;;;;;;;;5.67;4.67;;;;;21.95;89.69;100806.94;4888475;29;45130;-79
2023/09/02 03:52:31;;;;;;;;;6.00;5.00;;;;;21.96;90.22;100808.75;4904876;29;45477;-80
2023/09/02 03:54:58;;;;;;;;;8.00;8.00;;;;;21.97;89.79;100805.09;4888845;29;44908;-78
2023/09/02 03:57:24;;;;;;;;;6.00;6.00;;;;;22.00;89.74;100802.28;4907277;29;45739;-79
2023/09/02 03:59:49;;;;;;;;;7.25;5.50;;;;;21.94;89.63;100786.25;4906668;29;44764;-79
2023/09/02 04:02:14;;;;;;;;;6.00;6.00;;;;;22.02;89.31;100786.00;4905513;29;45173;-78
2023/09/02 04:04:40;;;;;;;;;5.33;4.33;;;;;22.00;89.62;100783.34;4888771;29;45449;-78
2023/09/02 04:07:06;;;;;;;;;8.00;4.75;;;;;22.01;90.17;100776.97;4905377;29;46173;-78
2023/09/02 04:09:33;;;;;;;;;5.67;5.67;;;;;21.90;90.16;100762.91;4873259;29;45372;-78
2023/09/02 04:11:58;;;;;;;;;6.67;6.67;;;;;21.91;90.77;100765.53;4889909;29;45453;-80
2023/09/02 04:14:24;;;;;;;;;8.67;7.67;;;;;21.85;90.59;100767.56;4887840;29;45444;-81
2023/09/02 04:16:52;;;;;;;;;8.00;6.00;;;;;21.93;90.75;100768.22;4890097;29;46926;-80
2023/09/02 04:19:17;;;;;;;;;6.67;6.67;;;;;21.85;90.47;100771.16;4887390;29;44895;-80
2023/09/02 04:21:43;;;;;;;;;8.00;7.00;;;;;21.89;90.79;100778.25;4889020;29;44915;-78
2023/09/02 04:24:09;;;;;;;;;8.00;7.67;;;;;21.83;90.77;100772.16;4906897;29;44896;-79
2023/09/02 04:26:34;;;;;;;;;7.00;7.00;;;;;21.85;90.67;100770.28;4906154;29;45032;-80
2023/09/02 04:29:00;;;;;;;;;7.00;7.00;;;;;21.76;90.57;100772.34;4889003;29;45419;-81
2023/09/02 04:31:26;;;;;;;;;5.67;5.67;;;;;21.84;91.15;100779.34;4905004;29;45207;-80
2023/09/02 04:33:52;;;;;;;;;8.67;8.67;;;;;21.81;90.84;100779.44;4905737;29;45404;-81
2023/09/02 04:36:17;;;;;;;;;7.67;6.67;;;;;21.83;90.63;100783.84;4905443;29;45970;-80
2023/09/02 04:38:43;;;;;;;;;6.00;6.00;;;;;21.85;90.32;100791.94;4888623;29;45426;-80
2023/09/02 04:41:08;;;;;;;;;7.33;7.00;;;;;21.90;90.30;100798.13;4906875;28;45319;-81
2023/09/02 04:43:35;;;;;;;;;7.00;7.00;;;;;21.88;90.36;100789.16;4905346;29;45780;-81
2023/09/02 04:46:02;;;;;;;;;6.00;6.00;;;;;21.98;90.38;100796.03;4906098;29;44909;-80
2023/09/02 04:48:28;;;;;;;;;10.00;9.33;;;;;21.93;90.68;100792.59;4889537;28;45336;-80
2023/09/02 04:50:58;;;;;;;;;7.67;6.67;;;;;22.07;90.45;100798.44;4905740;29;45425;-81
2023/09/02 04:53:24;;;;;;;;;9.00;9.00;;;;;21.94;90.95;100797.06;4889554;29;44815;-82
2023/09/02 04:55:50;;;;;;;;;9.00;8.00;;;;;21.93;90.71;100795.28;4889094;29;47175;-81
2023/09/02 04:58:16;;;;;;;;;8.67;8.67;;;;;21.83;90.73;100786.56;4907114;29;45852;-81
2023/09/02 05:00:42;;;;;;;;;8.00;7.00;;;;;21.85;90.84;100786.53;4889872;29;45543;-81
2023/09/02 05:03:08;;;;;;;;;8.00;8.00;;;;;21.86;91.11;100788.31;4890599;29;44861;-81
2023/09/02 05:05:34;;;;;;;;;10.00;7.25;;;;;21.83;91.71;100791.97;4890302;29;47504;-82
2023/09/02 05:08:00;;;;;;;;;9.67;9.67;;;;;21.83;91.23;100799.22;4891014;29;45394;-82
2023/09/02 05:10:25;;;;;;;;;10.33;9.00;;;;;21.82;91.77;100797.47;4907834;29;45394;-79
2023/09/02 05:12:51;;;;;;;;;7.00;7.00;;;;;21.81;91.27;100806.50;4908272;29;45530;-80
2023/09/02 05:15:16;;;;;;;;;8.00;8.00;;;;;21.79;91.38;100809.25;4906778;29;45351;-81
2023/09/02 05:21:04;;;;;;;;;8.25;7.75;;;;;21.77;91.66;100819.25;4908797;29;45307;-81
2023/09/02 05:23:29;;;;;;;;;7.33;7.33;;;;;21.77;91.49;100817.44;4906254;28;44795;-80
2023/09/02 05:25:56;;;;;;;;;9.67;8.67;;;;;21.85;91.59;100819.00;4907376;29;45894;-80
2023/09/02 05:28:25;;;;;;;;;9.00;8.00;;;;;21.94;91.12;100819.63;4906702;29;45398;-81
2023/09/02 05:30:51;;;;;;;;;8.00;8.00;;;;;21.83;91.00;100820.88;4890544;29;45393;-81
2023/09/02 05:33:17;;;;;;;;;12.33;9.00;;;;;21.83;90.93;100829.00;4890285;29;45410;-81
2023/09/02 05:35:43;;;;;;;;;11.67;9.67;;;;;21.94;91.14;100835.00;4904926;29;45471;-82
2023/09/02 05:38:09;;;;;;;;;9.67;8.00;;;;;21.87;91.21;100827.97;4905380;29;45290;-81
2023/09/02 05:40:35;;;;;;;;;7.00;7.00;;;;;21.93;90.99;100833.19;4906072;29;45736;-81
2023/09/02 05:43:02;;;;;;;;;10.67;10.33;;;;;22.03;91.37;100828.38;4888492;29;45578;-82
2023/09/02 05:45:29;;;;;;;;;11.33;10.33;;;;;22.07;90.58;100836.34;4888861;29;47107;-82
2023/09/02 05:47:54;;;;;;;;;6.00;6.00;;;;;21.97;90.52;100837.56;4906500;29;45394;-81
2023/09/02 05:50:20;;;;;;;;;8.75;8.75;;;;;22.05;90.71;100838.22;4907440;29;46119;-81
2023/09/02 05:52:45;;;;;;;;;9.25;9.25;;;;;22.07;90.36;100839.06;4907285;29;44909;-82
2023/09/02 05:55:11;;;;;;;;;8.00;6.25;;;;;22.13;90.57;100846.09;4888899;29;47294;-81
2023/09/02 05:57:36;;;;;;;;;11.67;10.33;;;;;22.18;90.43;100846.84;4907535;29;45421;-81
2023/09/02 06:00:03;;;;;;;;;8.00;8.00;;;;;22.15;89.75;100845.09;4889486;29;45473;-81
2023/09/02 06:02:33;;;;;;;;;8.00;8.00;;;;;22.30;89.74;100856.41;4906284;29;44741;-81
2023/09/02 06:04:58;;;;;;;;;11.33;8.00;;;;;22.18;89.60;100853.16;4874342;29;47341;-81
2023/09/02 06:07:27;;;;;;;;;7.33;7.33;;;;;22.20;89.47;100846.78;4891118;29;44857;-81
2023/09/02 06:09:52;;;;;;;;;6.00;6.00;;;;;22.27;89.34;100848.41;4907768;29;44740;-81
2023/09/02 06:12:18;;;;;;;;;10.33;8.67;;;;;22.40;89.35;100847.06;4889503;29;45456;-81
2023/09/02 06:14:43;;;;;;;;;9.33;9.33;;;;;22.52;88.76;100846.66;4889579;29;48515;-81
2023/09/02 06:17:08;;;;;;;;;8.00;8.00;;;;;22.69;88.37;100853.31;4890343;29;45332;-81
2023/09/02 06:19:34;;;;;;;;;9.33;9.00;;;;;22.81;87.68;100852.91;4906296;29;45363;-81
2023/09/02 06:22:00;;;;;;;;;10.00;8.33;;;;;22.84;87.11;100851.91;4905761;29;45377;-80
2023/09/02 06:24:26;;;;;;;;;10.67;10.00;;;;;22.91;86.39;100859.78;4905121;29;45427;-81
2023/09/02 06:26:55;;;;;;;;;8.67;8.67;;;;;22.78;86.28;100863.84;4905169;29;45131;-81
2023/09/02 06:29:20;;;;;;;;;10.67;10.67;;;;;22.78;86.78;100869.25;4889129;29;44844;-82
2023/09/02 06:31:46;;;;;;;;;9.25;9.25;;;;;22.79;86.40;100876.47;4888757;29;45086;-81
2023/09/02 06:34:13;;;;;;;;;11.00;9.33;;;;;22.85;86.42;100886.22;4906155;29;45338;-81
2023/09/02 06:36:39;;;;;;;;;8.00;8.00;;;;;22.92;86.67;100885.06;4888710;29;45404;-81
2023/09/02 06:39:04;;;;;;;;;8.33;8.33;;;;;23.00;86.26;100888.38;4888818;29;44799;-81
2023/09/02 06:41:30;;;;;;;;;9.00;9.00;;;;;23.06;85.76;100892.75;4889640;29;45566;-81
2023/09/02 06:43:56;;;;;;;;;9.67;9.67;;;;;23.12;85.84;100892.53;4905405;29;45384;-81
2023/09/02 06:46:25;;;;;;;;;7.33;7.33;;;;;23.23;85.37;100884.00;4887046;29;45395;-81
2023/09/02 06:48:50;;;;;;;;;10.33;9.00;;;;;23.40;84.58;100888.81;4886711;29;45396;-81
2023/09/02 06:51:16;;;;;;;;;9.33;9.33;;;;;23.61;84.61;100892.56;4886782;29;45548;-81
2023/09/02 06:53:44;;;;;;;;;10.00;10.00;;;;;23.83;83.21;100889.94;4887449;29;47049;-81
2023/09/02 06:56:14;;;;;;;;;9.00;7.67;;;;;23.82;82.78;100882.75;4904316;29;45378;-82
2023/09/02 06:58:45;;;;;;;;;10.00;10.00;;;;;23.89;82.27;100878.84;4905104;29;44836;-81
2023/09/02 07:01:24;;;;;;;;;10.33;9.00;;;;;24.04;81.77;100882.78;4888020;29;44929;-81
2023/09/02 07:03:50;;;;;;;;;8.33;8.33;;;;;23.96;80.85;100886.69;4903512;29;46951;-81
2023/09/02 07:06:16;;;;;;;;;12.33;10.00;;;;;24.02;81.13;100901.88;4905634;29;44895;-81
2023/09/02 07:08:43;;;;;;;;;11.00;9.00;;;;;24.22;80.45;100906.50;4906794;29;45411;-82
2023/09/02 07:11:09;;;;;;;;;10.00;10.00;;;;;24.26;80.40;100908.16;4891013;29;45451;-81
2023/09/02 07:13:39;;;;;;;;;9.00;9.00;;;;;24.39;79.94;100905.81;4906648;28;45373;-81
2023/09/02 07:16:11;;;;;;;;;8.33;7.00;;;;;24.68;79.87;100907.38;4890508;29;45545;-81
2023/09/02 07:18:44;;;;;;;;;11.00;9.00;;;;;24.54;79.26;100913.38;4907545;29;44798;-80
2023/09/02 07:21:11;;;;;;;;;9.00;8.67;;;;;24.58;78.91;100905.09;4907088;29;44848;-80
2023/09/02 07:23:36;;;;;;;;;7.25;7.25;;;;;24.53;78.41;100914.31;4889727;29;47282;-80
2023/09/02 07:26:05;;;;;;;;;8.00;7.00;;;;;24.65;78.52;100909.34;4907562;29;44757;-80
2023/09/02 07:28:32;;;;;;;;;11.00;9.67;;;;;24.54;78.00;100898.88;4906787;29;45856;-81
2023/09/02 07:31:05;;;;;;;;;8.00;8.00;;;;;24.67;77.64;100911.03;4891511;29;44833;-81
2023/09/02 07:33:30;;;;;;;;;9.00;9.00;;;;;24.58;77.13;100935.00;4891665;29;45482;-81
2023/09/02 07:35:57;;;;;;;;;10.00;9.00;;;;;24.57;77.42;100963.16;4890028;29;45417;-81
2023/09/02 07:38:23;;;;;;;;;10.00;9.00;;;;;24.62;77.97;100978.34;4906893;29;44762;-81
2023/09/02 07:40:49;;;;;;;;;8.33;8.33;;;;;24.69;77.35;100982.56;4892097;29;44799;-81
2023/09/02 07:43:14;;;;;;;;;11.00;9.67;;;;;24.71;77.25;100982.50;4907779;29;45429;-81
2023/09/02 07:45:43;;;;;;;;;7.33;7.33;;;;;24.57;77.33;100968.59;4889494;29;45316;-80
2023/09/02 07:48:09;;;;;;;;;12.67;12.33;;;;;24.62;77.46;100978.34;4906425;29;45416;-81
2023/09/02 07:50:35;;;;;;;;;10.00;10.00;;;;;24.59;77.15;100988.47;4905130;29;44788;-81
2023/09/02 07:53:00;;;;;;;;;9.25;9.25;;;;;24.52;76.70;100999.56;4905768;29;45448;-81
2023/09/02 07:55:26;;;;;;;;;9.33;9.00;;;;;24.59;77.10;100999.34;4888620;29;45050;-80
2023/09/02 07:57:54;;;;;;;;;10.33;10.33;;;;;24.73;77.19;100996.94;4889149;29;45350;-81
2023/09/02 08:00:20;;;;;;;;;11.00;11.00;;;;;24.90;76.76;100988.06;4889140;29;44962;-82
2023/09/02 08:02:48;;;;;;;;;11.00;11.00;;;;;25.11;75.76;100987.16;4888553;29;47003;-82
2023/09/02 08:05:15;;;;;;;;;13.33;10.00;;;;;25.20;75.13;100990.44;4888148;29;44887;-81
2023/09/02 08:07:42;;;;;;;;;10.33;10.00;;;;;25.37;74.02;100997.91;4906567;29;45421;-80
2023/09/02 08:10:08;;;;;;;;;7.67;7.67;;;;;25.39;73.74;100991.47;4905135;29;45305;-80
2023/09/02 08:12:33;;;;;;;;;10.67;9.00;;;;;25.45;73.81;100999.38;4907692;29;45629;-81
2023/09/02 08:14:59;;;;;;;;;8.00;8.00;;;;;25.31;73.51;100991.78;4874788;29;45427;-82
2023/09/02 08:17:27;;;;;;;;;7.67;7.67;;;;;25.40;74.02;100995.06;4906032;29;44841;-80
2023/09/02 08:19:53;;;;;;;;;8.00;8.00;;;;;25.51;73.82;100990.00;4906899;29;44803;-81
2023/09/02 08:22:18;;;;;;;;;8.00;8.00;;;;;25.59;72.79;100998.72;4889630;29;47256;-82
2023/09/02 08:24:44;;;;;;;;;7.00;7.00;;;;;25.52;73.07;100992.69;4905935;29;45419;-81
2023/09/02 08:27:09;;;;;;;;;7.00;7.00;;;;;25.40;73.20;100986.91;4907086;29;45585;-81
2023/09/02 08:29:34;;;;;;;;;7.00;7.00;;;;;25.39;73.12;100972.41;4907568;29;45459;-81
2023/09/02 08:32:00;;;;;;;;;6.00;6.00;;;;;25.46;73.37;100964.84;4906977;29;45458;-80
2023/09/02 08:34:27;;;;;;;;;8.50;8.50;;;;;25.61;72.74;100966.88;4889251;29;45519;-81
2023/09/02 08:36:53;;;;;;;;;7.50;7.50;;;;;25.71;72.37;100959.16;4906626;29;45386;-81
2023/09/02 08:39:18;;;;;;;;;10.50;8.50;;;;;25.74;72.12;100949.00;4890971;29;45413;-80
2023/09/02 08:41:46;;;;;;;;;8.75;8.75;;;;;25.84;72.73;100957.66;4891058;29;47341;-81
2023/09/02 08:44:16;;;;;;;;;7.50;7.50;;;;;25.89;71.51;100951.97;4875822;29;45359;-81
2023/09/02 08:46:44;;;;;;;;;11.33;10.00;;;;;25.84;71.92;100954.06;4907970;29;44890;-81
2023/09/02 08:49:11;;;;;;;;;8.67;8.00;;;;;25.89;71.15;100947.41;4889676;28;45355;-81
2023/09/02 08:51:42;;;;;;;;;8.67;8.67;;;;;26.11;70.51;100947.31;4905353;29;45278;-81
2023/09/02 08:54:10;;;;;;;;;7.75;7.75;;;;;25.99;70.26;100957.94;4920498;28;45374;-81
2023/09/02 08:56:40;;;;;;;;;8.25;8.00;;;;;26.01;70.16;100948.72;4907738;29;44760;-81
2023/09/02 08:59:05;;;;;;;;;5.75;5.75;;;;;25.99;69.85;100953.34;4891577;29;45203;-81
2023/09/02 09:01:31;;;;;;;;;9.00;9.00;;;;;26.07;69.67;100948.41;4906955;29;46720;-81
2023/09/02 09:03:58;;;;;;;;;3.25;2.75;;;;;26.11;69.38;100950.03;4906300;29;44857;-80
2023/09/02 09:06:25;;;;;;;;;9.00;7.00;;;;;26.28;68.31;100945.66;4874923;29;44775;-81
2023/09/02 09:08:55;;;;;;;;;7.50;7.50;;;;;26.41;68.66;100941.34;4875899;29;44766;-81
2023/09/02 09:11:22;;;;;;;;;7.75;7.00;;;;;26.43;68.65;100935.84;4872464;29;47509;-81
2023/09/02 09:13:52;;;;;;;;;10.00;7.67;;;;;26.42;68.29;100928.59;4888731;29;45361;-81
2023/09/02 09:16:31;;;;;;;;;6.00;6.00;;;;;26.58;67.79;100934.22;4889359;29;45560;-81
2023/09/02 09:18:57;;;;;;;;;5.00;5.00;;;;;26.44;67.34;100938.50;4907216;29;44749;-81
2023/09/02 09:21:23;;;;;;;;;8.00;7.00;;;;;26.40;67.28;100923.25;4905974;29;45082;-80
2023/09/02 09:23:49;;;;;;;;;6.00;6.00;;;;;26.45;66.97;100932.06;4906482;28;44849;-80
2023/09/02 09:26:15;;;;;;;;;4.00;4.00;;;;;26.57;66.70;100940.63;4889126;29;44861;-81
2023/09/02 09:28:54;;;;;;;;;7.00;7.00;;;;;26.74;66.66;100943.41;4887648;29;45461;-81
2023/09/02 09:31:21;;;;;;;;;6.00;6.00;;;;;26.67;66.60;100951.00;4888120;29;47425;-81
2023/09/02 09:33:54;;;;;;;;;4.25;4.25;;;;;26.79;65.37;100956.84;4904412;29;44775;-81
2023/09/02 09:36:23;;;;;;;;;8.33;6.67;;;;;26.93;65.48;100963.34;4904078;29;44819;-81
2023/09/02 09:38:56;;;;;;;;;6.75;6.75;;;;;27.07;64.08;100964.50;4904550;29;45330;-80
2023/09/02 09:41:25;;;;;;;;;7.00;7.00;;;;;27.00;65.05;100969.38;4905639;29;45514;-82
2023/09/02 09:44:16;;;;;;;;;6.50;5.75;;;;;27.34;64.29;100984.94;4908159;28;45497;-81
2023/09/02 09:46:51;;;;;;;;;7.00;6.75;;;;;27.43;64.16;101001.78;4907554;29;44952;-81
2023/09/02 09:49:29;;;;;;;;;5.25;5.25;;;;;27.56;64.36;100994.75;4919210;28;45366;-81
2023/09/02 09:52:00;;;;;;;;;5.50;4.75;;;;;27.77;63.38;100987.22;4889133;29;47427;-81
2023/09/02 09:54:39;;;;;;;;;5.25;5.25;;;;;27.83;62.54;100983.28;4888126;29;44865;-81
2023/09/02 09:57:09;;;;;;;;;5.00;5.00;;;;;27.71;62.04;100980.28;4905300;29;45384;-81
2023/09/02 09:59:35;;;;;;;;;9.25;6.00;;;;;27.66;62.97;100985.09;4889583;29;44868;-81
2023/09/02 10:02:04;;;;;;;;;8.33;8.00;;;;;27.81;61.40;100977.03;4889368;29;46026;-80
2023/09/02 10:04:31;;;;;;;;;4.75;4.75;;;;;27.76;60.65;100981.88;4906847;29;44732;-81
2023/09/02 10:07:04;;;;;;;;;5.75;5.75;;;;;28.09;61.16;100982.75;4906807;29;45413;-81
2023/09/02 10:12:54;;;;;;;;;5.67;4.67;;;;;28.46;59.61;100966.13;4909069;29;44968;-81
2023/09/02 10:15:24;;;;;;;;;6.00;5.00;;;;;28.47;57.96;100957.84;4892442;29;44767;-81
2023/09/02 10:17:53;;;;;;;;;6.00;5.67;;;;;28.43;59.84;100956.25;4910284;28;44735;-81
2023/09/02 10:20:23;;;;;;;;;4.00;2.25;;;;;28.51;58.15;100977.75;4892225;29;44821;-81
2023/09/02 10:22:50;;;;;;;;;6.25;6.25;;;;;28.63;58.61;100984.38;4891708;29;47238;-82
2023/09/02 10:25:24;;;;;;;;;4.75;4.75;;;;;28.76;58.08;100985.41;4906540;29;44853;-81
2023/09/02 10:28:12;;;;;;;;;5.25;5.25;;;;;28.66;57.39;100979.59;4922148;28;45426;-81
2023/09/02 10:30:48;;;;;;;;;3.50;3.50;;;;;28.53;57.25;100982.16;4908313;29;45362;-81
2023/09/02 10:33:54;;;;;;;;;5.25;4.25;;;;;28.46;57.28;100980.72;4907038;29;45389;-81
2023/09/02 10:36:22;;;;;;;;;4.00;4.00;;;;;28.43;58.09;100975.41;4830161;29;46089;-82
2023/09/02 10:38:49;;;;;;;;;8.50;6.75;;;;;28.45;58.21;100978.94;4831176;29;44941;-80
2023/09/02 10:41:23;;;;;;;;;3.75;3.75;;;;;28.71;56.97;100982.94;4830692;29;44912;-81
2023/09/02 10:43:49;;;;;;;;;4.50;3.50;;;;;28.86;57.47;100975.69;4830274;29;47415;-80
2023/09/02 10:46:14;;;;;;;;;4.25;4.25;;;;;29.05;57.46;100963.66;4831235;29;44848;-80
2023/09/02 10:48:43;;;;;;;;;7.00;5.75;;;;;29.26;55.93;100970.59;4829422;29;45442;-81
2023/09/02 10:51:09;;;;;;;;;3.75;3.75;;;;;29.25;55.87;100968.84;4845855;29;45418;-81
2023/09/02 10:53:53;;;;;;;;;5.00;5.00;;;;;29.22;55.00;100965.41;4845830;29;45391;-81
2023/09/02 10:56:36;;;;;;;;;4.00;3.50;;;;;29.09;55.75;100973.44;4845769;29;44798;-81
2023/09/02 10:59:07;;;;;;;;;4.25;2.75;;;;;29.01;55.69;100973.91;4830950;29;45003;-81
2023/09/02 11:01:49;;;;;;;;;4.50;4.50;;;;;29.05;55.40;100989.19;4846379;29;44751;-81
2023/09/02 11:04:40;;;;;;;;;2.75;2.75;;;;;29.01;55.97;100987.59;4829307;29;46945;-81
2023/09/02 11:07:22;;;;;;;;;4.75;4.75;;;;;29.01;55.61;100981.25;4846461;29;45578;-81
2023/09/02 11:09:58;;;;;;;;;4.00;2.25;;;;;28.95;54.59;100976.13;4847901;29;44869;-81
2023/09/02 11:12:24;;;;;;;;;1.25;1.25;;;;;28.76;54.19;100977.19;4886800;29;44988;-81
2023/09/02 11:15:08;;;;;;;;;2.00;2.00;;;;;28.90;54.72;100974.56;4887026;29;46855;-81
2023/09/02 11:17:38;;;;;;;;;3.25;3.25;;;;;28.78;55.36;100963.41;4887126;29;45384;-81
2023/09/02 11:20:05;;;;;;;;;3.50;3.25;;;;;28.79;54.87;100977.03;4891079;29;44752;-81
2023/09/02 11:22:52;;;;;;;;;2.25;2.25;;;;;29.02;54.46;100983.88;4874199;29;45380;-81
2023/09/02 11:25:27;;;;;;;;;3.00;2.00;;;;;29.04;53.74;100987.41;4907549;28;45103;-81
2023/09/02 11:27:57;;;;;;;;;4.25;4.25;;;;;28.87;54.01;100974.72;4905541;29;44921;-81
2023/09/02 11:30:24;;;;;;;;;3.75;3.00;;;;;28.96;53.38;100984.22;4888893;28;44780;-81
2023/09/02 11:32:50;;;;;;;;;2.33;2.33;;;;;28.92;52.91;100986.28;4891481;28;44816;-82
2023/09/02 11:35:23;;;;;;;;;3.25;3.00;;;;;29.07;53.00;101002.78;4908064;29;45278;-80